sensor_id;sensor_type;location;lat;lon;timestamp;temperature;humidity
73133;DHT22;61320;52.008;4.530;2023-04-24T00:00:17;11.12;86.05
73133;DHT22;61320;52.008;4.530;2023-04-24T00:02:43;11.09;86.27
73133;DHT22;61320;52.008;4.530;2023-04-24T00:05:14;11.05;86.47
73133;DHT22;61320;52.008;4.530;2023-04-24T00:07:40;11.13;86.53
73133;DHT22;61320;52.008;4.530;2023-04-24T00:10:06;11.11;86.12
73133;DHT22;61320;52.008;4.530;2023-04-24T00:12:32;11.11;86.44
73133;DHT22;61320;52.008;4.530;2023-04-24T00:14:58;11.11;86.41
73133;DHT22;61320;52.008;4.530;2023-04-24T00:17:24;11.19;86.42
73133;DHT22;61320;52.008;4.530;2023-04-24T00:19:49;11.20;86.26
73133;DHT22;61320;52.008;4.530;2023-04-24T00:22:28;11.26;86.17
73133;DHT22;61320;52.008;4.530;2023-04-24T00:24:54;11.16;86.12
73133;DHT22;61320;52.008;4.530;2023-04-24T00:27:19;11.26;86.50
73133;DHT22;61320;52.008;4.530;2023-04-24T00:29:45;11.29;86.30
73133;DHT22;61320;52.008;4.530;2023-04-24T00:32:11;11.25;85.72
73133;DHT22;61320;52.008;4.530;2023-04-24T00:34:36;11.18;86.03
73133;DHT22;61320;52.008;4.530;2023-04-24T00:37:01;11.13;85.65
73133;DHT22;61320;52.008;4.530;2023-04-24T00:39:27;11.08;85.94
73133;DHT22;61320;52.008;4.530;2023-04-24T00:41:53;11.02;86.32
73133;DHT22;61320;52.008;4.530;2023-04-24T00:44:18;11.06;86.37
73133;DHT22;61320;52.008;4.530;2023-04-24T00:46:45;11.12;86.41
73133;DHT22;61320;52.008;4.530;2023-04-24T00:49:12;11.11;86.10
73133;DHT22;61320;52.008;4.530;2023-04-24T00:51:37;11.15;85.99
73133;DHT22;61320;52.008;4.530;2023-04-24T00:54:02;11.08;85.80
73133;DHT22;61320;52.008;4.530;2023-04-24T00:56:28;11.11;86.24
73133;DHT22;61320;52.008;4.530;2023-04-24T00:58:54;11.13;86.05
73133;DHT22;61320;52.008;4.530;2023-04-24T01:01:20;11.11;85.98
73133;DHT22;61320;52.008;4.530;2023-04-24T01:03:49;11.11;85.91
73133;DHT22;61320;52.008;4.530;2023-04-24T01:06:15;11.15;86.07
73133;DHT22;61320;52.008;4.530;2023-04-24T01:08:41;11.16;85.96
73133;DHT22;61320;52.008;4.530;2023-04-24T01:11:07;11.16;85.55
73133;DHT22;61320;52.008;4.530;2023-04-24T01:13:34;11.18;85.84
73133;DHT22;61320;52.008;4.530;2023-04-24T01:16:00;11.19;85.87
73133;DHT22;61320;52.008;4.530;2023-04-24T01:18:26;11.12;85.10
73133;DHT22;61320;52.008;4.530;2023-04-24T01:21:03;11.05;85.60
73133;DHT22;61320;52.008;4.530;2023-04-24T01:23:29;10.96;85.41
73133;DHT22;61320;52.008;4.530;2023-04-24T01:25:55;10.99;85.71
73133;DHT22;61320;52.008;4.530;2023-04-24T01:28:22;10.94;85.41
73133;DHT22;61320;52.008;4.530;2023-04-24T01:30:48;10.88;85.64
73133;DHT22;61320;52.008;4.530;2023-04-24T01:33:13;10.88;85.94
73133;DHT22;61320;52.008;4.530;2023-04-24T01:35:39;10.88;85.56
73133;DHT22;61320;52.008;4.530;2023-04-24T01:38:05;10.89;85.83
73133;DHT22;61320;52.008;4.530;2023-04-24T01:40:31;10.92;85.93
73133;DHT22;61320;52.008;4.530;2023-04-24T01:42:57;10.98;85.94
73133;DHT22;61320;52.008;4.530;2023-04-24T01:45:22;11.01;85.60
73133;DHT22;61320;52.008;4.530;2023-04-24T01:47:49;10.96;85.24
73133;DHT22;61320;52.008;4.530;2023-04-24T01:50:15;10.96;85.69
73133;DHT22;61320;52.008;4.530;2023-04-24T01:52:41;11.02;85.92
73133;DHT22;61320;52.008;4.530;2023-04-24T01:55:07;11.08;85.79
73133;DHT22;61320;52.008;4.530;2023-04-24T01:57:33;11.09;85.14
73133;DHT22;61320;52.008;4.530;2023-04-24T01:59:59;11.01;85.48
73133;DHT22;61320;52.008;4.530;2023-04-24T02:02:24;11.02;85.69
73133;DHT22;61320;52.008;4.530;2023-04-24T02:04:53;11.06;85.56
73133;DHT22;61320;52.008;4.530;2023-04-24T02:07:18;11.08;85.69
73133;DHT22;61320;52.008;4.530;2023-04-24T02:09:44;11.08;85.49
73133;DHT22;61320;52.008;4.530;2023-04-24T02:12:10;11.06;85.71
73133;DHT22;61320;52.008;4.530;2023-04-24T02:14:35;11.04;85.41
73133;DHT22;61320;52.008;4.530;2023-04-24T02:17:01;11.05;85.91
73133;DHT22;61320;52.008;4.530;2023-04-24T02:19:26;11.06;85.86
73133;DHT22;61320;52.008;4.530;2023-04-24T02:21:52;11.06;85.97
73133;DHT22;61320;52.008;4.530;2023-04-24T02:24:17;11.15;86.10
73133;DHT22;61320;52.008;4.530;2023-04-24T02:26:43;11.19;85.82
73133;DHT22;61320;52.008;4.530;2023-04-24T02:29:08;11.16;85.71
73133;DHT22;61320;52.008;4.530;2023-04-24T02:31:34;11.18;85.73
73133;DHT22;61320;52.008;4.530;2023-04-24T02:33:59;11.16;85.62
73133;DHT22;61320;52.008;4.530;2023-04-24T02:36:25;11.09;85.74
73133;DHT22;61320;52.008;4.530;2023-04-24T02:38:50;11.15;85.82
73133;DHT22;61320;52.008;4.530;2023-04-24T02:41:16;11.11;85.68
73133;DHT22;61320;52.008;4.530;2023-04-24T02:43:41;11.02;85.00
73133;DHT22;61320;52.008;4.530;2023-04-24T02:46:06;10.95;85.85
73133;DHT22;61320;52.008;4.530;2023-04-24T02:48:32;10.91;85.55
73133;DHT22;61320;52.008;4.530;2023-04-24T02:50:57;10.82;85.38
73133;DHT22;61320;52.008;4.530;2023-04-24T02:53:23;10.79;85.32
73133;DHT22;61320;52.008;4.530;2023-04-24T02:55:49;10.71;85.67
73133;DHT22;61320;52.008;4.530;2023-04-24T02:58:14;10.68;85.61
73133;DHT22;61320;52.008;4.530;2023-04-24T03:00:40;10.55;85.75
73133;DHT22;61320;52.008;4.530;2023-04-24T03:03:05;10.51;85.30
73133;DHT22;61320;52.008;4.530;2023-04-24T03:05:32;10.47;85.84
73133;DHT22;61320;52.008;4.530;2023-04-24T03:07:57;10.46;86.02
73133;DHT22;61320;52.008;4.530;2023-04-24T03:10:23;10.48;85.95
73133;DHT22;61320;52.008;4.530;2023-04-24T03:12:48;10.50;85.71
73133;DHT22;61320;52.008;4.530;2023-04-24T03:15:15;10.47;85.72
73133;DHT22;61320;52.008;4.530;2023-04-24T03:17:41;10.47;85.67
73133;DHT22;61320;52.008;4.530;2023-04-24T03:20:07;10.51;86.04
73133;DHT22;61320;52.008;4.530;2023-04-24T03:22:33;10.51;86.07
73133;DHT22;61320;52.008;4.530;2023-04-24T03:25:00;10.57;86.39
73133;DHT22;61320;52.008;4.530;2023-04-24T03:27:25;10.67;86.27
73133;DHT22;61320;52.008;4.530;2023-04-24T03:29:51;10.72;86.02
73133;DHT22;61320;52.008;4.530;2023-04-24T03:32:23;10.77;85.93
73133;DHT22;61320;52.008;4.530;2023-04-24T03:34:49;10.81;86.15
73133;DHT22;61320;52.008;4.530;2023-04-24T03:37:16;10.85;86.52
73133;DHT22;61320;52.008;4.530;2023-04-24T03:39:42;10.95;86.31
73133;DHT22;61320;52.008;4.530;2023-04-24T03:42:08;10.95;86.05
73133;DHT22;61320;52.008;4.530;2023-04-24T03:44:34;10.98;86.16
73133;DHT22;61320;52.008;4.530;2023-04-24T03:47:00;11.02;86.16
73133;DHT22;61320;52.008;4.530;2023-04-24T03:49:26;11.09;86.13
73133;DHT22;61320;52.008;4.530;2023-04-24T03:51:51;11.12;85.92
73133;DHT22;61320;52.008;4.530;2023-04-24T03:54:21;11.12;85.97
73133;DHT22;61320;52.008;4.530;2023-04-24T03:56:46;11.16;85.96
73133;DHT22;61320;52.008;4.530;2023-04-24T03:59:11;11.19;85.60
73133;DHT22;61320;52.008;4.530;2023-04-24T04:01:37;11.18;85.71
73133;DHT22;61320;52.008;4.530;2023-04-24T04:04:04;11.22;85.79
73133;DHT22;61320;52.008;4.530;2023-04-24T04:06:29;11.22;85.85
73133;DHT22;61320;52.008;4.530;2023-04-24T04:08:56;11.26;85.81
73133;DHT22;61320;52.008;4.530;2023-04-24T04:11:22;11.25;85.44
73133;DHT22;61320;52.008;4.530;2023-04-24T04:13:47;11.26;85.41
73133;DHT22;61320;52.008;4.530;2023-04-24T04:16:13;11.23;85.79
73133;DHT22;61320;52.008;4.530;2023-04-24T04:18:39;11.20;85.65
73133;DHT22;61320;52.008;4.530;2023-04-24T04:21:04;11.19;85.33
73133;DHT22;61320;52.008;4.530;2023-04-24T04:23:30;11.02;85.74
73133;DHT22;61320;52.008;4.530;2023-04-24T04:25:57;10.89;85.53
73133;DHT22;61320;52.008;4.530;2023-04-24T04:28:22;10.84;85.73
73133;DHT22;61320;52.008;4.530;2023-04-24T04:30:50;10.91;86.35
73133;DHT22;61320;52.008;4.530;2023-04-24T04:33:20;10.89;86.29
73133;DHT22;61320;52.008;4.530;2023-04-24T04:35:46;10.88;86.03
73133;DHT22;61320;52.008;4.530;2023-04-24T04:38:14;10.89;86.05
73133;DHT22;61320;52.008;4.530;2023-04-24T04:40:40;10.92;86.09
73133;DHT22;61320;52.008;4.530;2023-04-24T04:43:06;10.89;85.88
73133;DHT22;61320;52.008;4.530;2023-04-24T04:45:32;10.88;85.74
73133;DHT22;61320;52.008;4.530;2023-04-24T04:47:58;10.84;85.99
73133;DHT22;61320;52.008;4.530;2023-04-24T04:50:26;10.84;85.96
73133;DHT22;61320;52.008;4.530;2023-04-24T04:52:52;10.85;85.90
73133;DHT22;61320;52.008;4.530;2023-04-24T04:55:18;10.85;85.81
73133;DHT22;61320;52.008;4.530;2023-04-24T04:57:45;10.75;85.41
73133;DHT22;61320;52.008;4.530;2023-04-24T05:00:11;10.69;85.74
73133;DHT22;61320;52.008;4.530;2023-04-24T05:02:40;10.71;85.92
73133;DHT22;61320;52.008;4.530;2023-04-24T05:05:06;10.68;85.83
73133;DHT22;61320;52.008;4.530;2023-04-24T05:07:33;10.68;86.03
73133;DHT22;61320;52.008;4.530;2023-04-24T05:09:58;10.68;85.75
73133;DHT22;61320;52.008;4.530;2023-04-24T05:12:24;10.65;85.43
73133;DHT22;61320;52.008;4.530;2023-04-24T05:14:49;10.54;85.29
73133;DHT22;61320;52.008;4.530;2023-04-24T05:17:15;10.47;85.53
73133;DHT22;61320;52.008;4.530;2023-04-24T05:19:42;10.43;85.64
73133;DHT22;61320;52.008;4.530;2023-04-24T05:22:08;10.41;85.68
73133;DHT22;61320;52.008;4.530;2023-04-24T05:24:35;10.43;85.86
73133;DHT22;61320;52.008;4.530;2023-04-24T05:27:02;10.44;85.91
73133;DHT22;61320;52.008;4.530;2023-04-24T05:29:28;10.43;85.82
73133;DHT22;61320;52.008;4.530;2023-04-24T05:31:53;10.41;85.84
73133;DHT22;61320;52.008;4.530;2023-04-24T05:34:19;10.38;85.76
73133;DHT22;61320;52.008;4.530;2023-04-24T05:36:44;10.37;85.87
73133;DHT22;61320;52.008;4.530;2023-04-24T05:39:10;10.37;85.68
73133;DHT22;61320;52.008;4.530;2023-04-24T05:41:36;10.37;85.56
73133;DHT22;61320;52.008;4.530;2023-04-24T05:44:01;10.33;85.50
73133;DHT22;61320;52.008;4.530;2023-04-24T05:46:27;10.32;85.44
73133;DHT22;61320;52.008;4.530;2023-04-24T05:48:52;10.32;85.22
73133;DHT22;61320;52.008;4.530;2023-04-24T05:51:17;10.27;85.48
73133;DHT22;61320;52.008;4.530;2023-04-24T05:53:43;10.27;85.57
73133;DHT22;61320;52.008;4.530;2023-04-24T05:56:09;10.27;85.55
73133;DHT22;61320;52.008;4.530;2023-04-24T05:58:34;10.29;85.42
73133;DHT22;61320;52.008;4.530;2023-04-24T06:01:00;10.26;85.39
73133;DHT22;61320;52.008;4.530;2023-04-24T06:03:27;10.24;85.80
73133;DHT22;61320;52.008;4.530;2023-04-24T06:05:53;10.26;85.64
73133;DHT22;61320;52.008;4.530;2023-04-24T06:08:19;10.24;85.42
73133;DHT22;61320;52.008;4.530;2023-04-24T06:10:44;10.26;85.68
73133;DHT22;61320;52.008;4.530;2023-04-24T06:13:10;10.24;85.49
73133;DHT22;61320;52.008;4.530;2023-04-24T06:15:36;10.21;85.27
73133;DHT22;61320;52.008;4.530;2023-04-24T06:18:02;10.16;85.40
73133;DHT22;61320;52.008;4.530;2023-04-24T06:20:28;10.14;85.38
73133;DHT22;61320;52.008;4.530;2023-04-24T06:22:53;10.10;85.45
73133;DHT22;61320;52.008;4.530;2023-04-24T06:25:19;10.12;85.53
73133;DHT22;61320;52.008;4.530;2023-04-24T06:27:45;10.14;85.35
73133;DHT22;61320;52.008;4.530;2023-04-24T06:30:10;10.13;85.74
73133;DHT22;61320;52.008;4.530;2023-04-24T06:32:36;10.18;85.79
73133;DHT22;61320;52.008;4.530;2023-04-24T06:35:01;10.21;85.65
73133;DHT22;61320;52.008;4.530;2023-04-24T06:37:28;10.20;85.33
73133;DHT22;61320;52.008;4.530;2023-04-24T06:39:54;10.20;85.63
73133;DHT22;61320;52.008;4.530;2023-04-24T06:42:19;10.18;85.27
73133;DHT22;61320;52.008;4.530;2023-04-24T06:44:47;10.20;85.64
73133;DHT22;61320;52.008;4.530;2023-04-24T06:47:12;10.20;85.39
73133;DHT22;61320;52.008;4.530;2023-04-24T06:49:41;10.21;85.33
73133;DHT22;61320;52.008;4.530;2023-04-24T06:52:07;10.23;85.37
73133;DHT22;61320;52.008;4.530;2023-04-24T06:54:33;10.21;85.24
73133;DHT22;61320;52.008;4.530;2023-04-24T06:56:59;10.20;85.42
73133;DHT22;61320;52.008;4.530;2023-04-24T06:59:26;10.23;85.40
73133;DHT22;61320;52.008;4.530;2023-04-24T07:01:52;10.20;85.09
73133;DHT22;61320;52.008;4.530;2023-04-24T07:04:18;10.18;85.16
73133;DHT22;61320;52.008;4.530;2023-04-24T07:06:45;10.18;85.40
73133;DHT22;61320;52.008;4.530;2023-04-24T07:09:11;10.18;85.19
73133;DHT22;61320;52.008;4.530;2023-04-24T07:11:38;10.14;84.75
73133;DHT22;61320;52.008;4.530;2023-04-24T07:14:06;10.07;85.00
73133;DHT22;61320;52.008;4.530;2023-04-24T07:16:32;10.07;84.91
73133;DHT22;61320;52.008;4.530;2023-04-24T07:18:57;10.05;85.02
73133;DHT22;61320;52.008;4.530;2023-04-24T07:21:23;10.05;85.35
73133;DHT22;61320;52.008;4.530;2023-04-24T07:23:48;10.03;85.19
73133;DHT22;61320;52.008;4.530;2023-04-24T07:26:14;10.09;85.16
73133;DHT22;61320;52.008;4.530;2023-04-24T07:28:40;10.07;84.78
73133;DHT22;61320;52.008;4.530;2023-04-24T07:31:06;10.09;85.12
73133;DHT22;61320;52.008;4.530;2023-04-24T07:33:32;10.06;84.57
73133;DHT22;61320;52.008;4.530;2023-04-24T07:35:58;10.05;85.06
73133;DHT22;61320;52.008;4.530;2023-04-24T07:38:24;10.06;84.81
73133;DHT22;61320;52.008;4.530;2023-04-24T07:40:51;10.03;84.79
73133;DHT22;61320;52.008;4.530;2023-04-24T07:43:19;10.05;84.95
73133;DHT22;61320;52.008;4.530;2023-04-24T07:45:45;10.07;84.65
73133;DHT22;61320;52.008;4.530;2023-04-24T07:48:10;10.00;83.95
73133;DHT22;61320;52.008;4.530;2023-04-24T07:50:36;10.03;84.93
73133;DHT22;61320;52.008;4.530;2023-04-24T07:53:02;9.96;84.53
73133;DHT22;61320;52.008;4.530;2023-04-24T07:55:33;10.00;84.78
73133;DHT22;61320;52.008;4.530;2023-04-24T07:58:01;9.82;84.31
73133;DHT22;61320;52.008;4.530;2023-04-24T08:00:27;9.86;84.08
73133;DHT22;61320;52.008;4.530;2023-04-24T08:02:53;9.83;84.61
73133;DHT22;61320;52.008;4.530;2023-04-24T08:05:18;9.88;84.82
73133;DHT22;61320;52.008;4.530;2023-04-24T08:07:53;9.82;84.05
73133;DHT22;61320;52.008;4.530;2023-04-24T08:10:21;9.82;84.80
73133;DHT22;61320;52.008;4.530;2023-04-24T08:12:46;9.85;84.47
73133;DHT22;61320;52.008;4.530;2023-04-24T08:15:12;9.88;84.33
73133;DHT22;61320;52.008;4.530;2023-04-24T08:17:37;9.74;83.27
73133;DHT22;61320;52.008;4.530;2023-04-24T08:20:04;9.69;83.99
73133;DHT22;61320;52.008;4.530;2023-04-24T08:22:30;9.59;84.13
73133;DHT22;61320;52.008;4.530;2023-04-24T08:24:56;9.59;83.32
73133;DHT22;61320;52.008;4.530;2023-04-24T08:27:25;9.49;83.35
73133;DHT22;61320;52.008;4.530;2023-04-24T08:29:53;9.52;83.78
73133;DHT22;61320;52.008;4.530;2023-04-24T08:32:18;9.54;83.17
73133;DHT22;61320;52.008;4.530;2023-04-24T08:34:44;9.55;83.38
73133;DHT22;61320;52.008;4.530;2023-04-24T08:37:09;9.59;83.74
73133;DHT22;61320;52.008;4.530;2023-04-24T08:39:35;9.59;83.26
73133;DHT22;61320;52.008;4.530;2023-04-24T08:42:01;9.54;83.40
73133;DHT22;61320;52.008;4.530;2023-04-24T08:44:34;9.48;83.31
73133;DHT22;61320;52.008;4.530;2023-04-24T08:47:04;9.39;82.68
73133;DHT22;61320;52.008;4.530;2023-04-24T08:49:30;9.38;83.06
73133;DHT22;61320;52.008;4.530;2023-04-24T08:51:56;9.34;83.23
73133;DHT22;61320;52.008;4.530;2023-04-24T08:54:22;9.38;83.44
73133;DHT22;61320;52.008;4.530;2023-04-24T08:56:48;9.41;83.98
73133;DHT22;61320;52.008;4.530;2023-04-24T08:59:15;9.49;83.69
73133;DHT22;61320;52.008;4.530;2023-04-24T09:01:41;9.51;83.84
73133;DHT22;61320;52.008;4.530;2023-04-24T09:04:09;9.44;83.11
73133;DHT22;61320;52.008;4.530;2023-04-24T09:06:36;9.49;83.69
73133;DHT22;61320;52.008;4.530;2023-04-24T09:09:02;9.59;83.14
73133;DHT22;61320;52.008;4.530;2023-04-24T09:11:30;9.47;82.03
73133;DHT22;61320;52.008;4.530;2023-04-24T09:13:56;9.44;82.64
73133;DHT22;61320;52.008;4.530;2023-04-24T09:16:25;9.39;82.88
73133;DHT22;61320;52.008;4.530;2023-04-24T09:18:52;9.41;83.49
73133;DHT22;61320;52.008;4.530;2023-04-24T09:21:20;9.49;83.31
73133;DHT22;61320;52.008;4.530;2023-04-24T09:23:46;9.63;83.78
73133;DHT22;61320;52.008;4.530;2023-04-24T09:26:11;9.74;84.20
73133;DHT22;61320;52.008;4.530;2023-04-24T09:28:40;9.89;83.38
73133;DHT22;61320;52.008;4.530;2023-04-24T09:31:14;10.00;84.40
73133;DHT22;61320;52.008;4.530;2023-04-24T09:33:53;10.12;83.38
73133;DHT22;61320;52.008;4.530;2023-04-24T09:36:27;10.17;82.99
73133;DHT22;61320;52.008;4.530;2023-04-24T09:38:57;10.32;81.74
73133;DHT22;61320;52.008;4.530;2023-04-24T09:41:23;10.41;81.39
73133;DHT22;61320;52.008;4.530;2023-04-24T09:43:48;10.46;82.02
73133;DHT22;61320;52.008;4.530;2023-04-24T09:46:14;10.47;81.74
73133;DHT22;61320;52.008;4.530;2023-04-24T09:48:40;10.50;81.20
73133;DHT22;61320;52.008;4.530;2023-04-24T09:51:06;10.43;80.21
73133;DHT22;61320;52.008;4.530;2023-04-24T09:53:36;10.46;81.43
73133;DHT22;61320;52.008;4.530;2023-04-24T09:56:07;10.51;81.12
73133;DHT22;61320;52.008;4.530;2023-04-24T09:58:35;10.38;79.37
73133;DHT22;61320;52.008;4.530;2023-04-24T10:01:01;10.27;80.72
73133;DHT22;61320;52.008;4.530;2023-04-24T10:03:30;10.27;81.55
73133;DHT22;61320;52.008;4.530;2023-04-24T10:05:59;10.24;81.18
73133;DHT22;61320;52.008;4.530;2023-04-24T10:08:25;10.24;80.54
73133;DHT22;61320;52.008;4.530;2023-04-24T10:10:52;10.29;82.34
73133;DHT22;61320;52.008;4.530;2023-04-24T10:13:17;10.34;81.80
73133;DHT22;61320;52.008;4.530;2023-04-24T10:15:44;10.33;82.32
73133;DHT22;61320;52.008;4.530;2023-04-24T10:18:10;10.34;81.69
73133;DHT22;61320;52.008;4.530;2023-04-24T10:20:38;10.27;81.54
73133;DHT22;61320;52.008;4.530;2023-04-24T10:23:04;10.29;81.91
73133;DHT22;61320;52.008;4.530;2023-04-24T10:25:32;10.37;81.30
73133;DHT22;61320;52.008;4.530;2023-04-24T10:27:59;10.26;80.08
73133;DHT22;61320;52.008;4.530;2023-04-24T10:30:27;10.26;80.87
73133;DHT22;61320;52.008;4.530;2023-04-24T10:32:53;10.29;80.56
73133;DHT22;61320;52.008;4.530;2023-04-24T10:35:20;10.27;79.70
73133;DHT22;61320;52.008;4.530;2023-04-24T10:38:11;10.37;80.31
73133;DHT22;61320;52.008;4.530;2023-04-24T10:40:37;10.48;80.30
73133;DHT22;61320;52.008;4.530;2023-04-24T10:43:07;10.65;80.88
73133;DHT22;61320;52.008;4.530;2023-04-24T10:45:36;10.85;79.74
73133;DHT22;61320;52.008;4.530;2023-04-24T10:48:04;11.02;81.41
73133;DHT22;61320;52.008;4.530;2023-04-24T10:51:01;11.22;81.60
73133;DHT22;61320;52.008;4.530;2023-04-24T10:53:29;11.42;81.17
73133;DHT22;61320;52.008;4.530;2023-04-24T10:58:39;11.15;78.30
73133;DHT22;61320;52.008;4.530;2023-04-24T11:01:06;11.12;80.01
73133;DHT22;61320;52.008;4.530;2023-04-24T11:03:34;11.23;78.52
73133;DHT22;61320;52.008;4.530;2023-04-24T11:06:05;11.29;77.67
73133;DHT22;61320;52.008;4.530;2023-04-24T11:08:37;11.35;77.87
73133;DHT22;61320;52.008;4.530;2023-04-24T11:11:09;11.46;77.70
73133;DHT22;61320;52.008;4.530;2023-04-24T11:16:25;11.64;79.16
73133;DHT22;61320;52.008;4.530;2023-04-24T11:18:59;12.04;74.68
73133;DHT22;61320;52.008;4.530;2023-04-24T11:21:31;12.32;75.92
73133;DHT22;61320;52.008;4.530;2023-04-24T11:23:58;12.55;75.31
73133;DHT22;61320;52.008;4.530;2023-04-24T11:26:24;12.73;75.84
73133;DHT22;61320;52.008;4.530;2023-04-24T11:29:06;12.84;77.38
73133;DHT22;61320;52.008;4.530;2023-04-24T11:31:39;12.93;72.65
73133;DHT22;61320;52.008;4.530;2023-04-24T11:34:09;12.94;74.09
73133;DHT22;61320;52.008;4.530;2023-04-24T11:36:36;13.00;75.14
73133;DHT22;61320;52.008;4.530;2023-04-24T11:39:02;12.97;73.95
73133;DHT22;61320;52.008;4.530;2023-04-24T11:41:28;12.89;73.78
73133;DHT22;61320;52.008;4.530;2023-04-24T11:43:55;12.75;74.79
73133;DHT22;61320;52.008;4.530;2023-04-24T11:46:22;12.69;72.99
73133;DHT22;61320;52.008;4.530;2023-04-24T11:48:47;12.59;73.36
73133;DHT22;61320;52.008;4.530;2023-04-24T11:51:13;12.59;73.85
73133;DHT22;61320;52.008;4.530;2023-04-24T11:53:39;12.52;72.14
73133;DHT22;61320;52.008;4.530;2023-04-24T11:56:05;12.41;72.47
73133;DHT22;61320;52.008;4.530;2023-04-24T11:58:38;12.39;72.96
73133;DHT22;61320;52.008;4.530;2023-04-24T12:01:12;12.46;72.50
73133;DHT22;61320;52.008;4.530;2023-04-24T12:03:37;12.52;72.97
73133;DHT22;61320;52.008;4.530;2023-04-24T12:06:10;12.49;71.72
73133;DHT22;61320;52.008;4.530;2023-04-24T12:08:37;12.59;72.26
73133;DHT22;61320;52.008;4.530;2023-04-24T12:11:04;12.83;71.73
73133;DHT22;61320;52.008;4.530;2023-04-24T12:13:33;12.87;71.76
73133;DHT22;61320;52.008;4.530;2023-04-24T12:15:58;12.77;71.83
73133;DHT22;61320;52.008;4.530;2023-04-24T12:18:24;12.52;73.51
73133;DHT22;61320;52.008;4.530;2023-04-24T12:20:50;12.28;73.80
73133;DHT22;61320;52.008;4.530;2023-04-24T12:23:16;11.97;72.75
73133;DHT22;61320;52.008;4.530;2023-04-24T12:25:42;11.71;75.81
73133;DHT22;61320;52.008;4.530;2023-04-24T12:28:10;11.66;76.24
73133;DHT22;61320;52.008;4.530;2023-04-24T12:30:46;11.59;76.47
73133;DHT22;61320;52.008;4.530;2023-04-24T12:33:18;11.63;76.66
73133;DHT22;61320;52.008;4.530;2023-04-24T12:35:44;11.56;75.66
73133;DHT22;61320;52.008;4.530;2023-04-24T12:38:12;11.54;76.57
73133;DHT22;61320;52.008;4.530;2023-04-24T12:40:40;11.78;76.87
73133;DHT22;61320;52.008;4.530;2023-04-24T12:43:18;11.97;75.83
73133;DHT22;61320;52.008;4.530;2023-04-24T12:45:43;12.04;71.68
73133;DHT22;61320;52.008;4.530;2023-04-24T12:48:10;11.98;72.46
73133;DHT22;61320;52.008;4.530;2023-04-24T12:50:36;12.05;72.78
73133;DHT22;61320;52.008;4.530;2023-04-24T12:53:01;12.18;74.85
73133;DHT22;61320;52.008;4.530;2023-04-24T12:55:27;12.22;73.60
73133;DHT22;61320;52.008;4.530;2023-04-24T12:57:53;12.18;72.43
73133;DHT22;61320;52.008;4.530;2023-04-24T13:00:20;12.06;68.62
73133;DHT22;61320;52.008;4.530;2023-04-24T13:02:46;11.95;70.89
73133;DHT22;61320;52.008;4.530;2023-04-24T13:05:12;11.91;71.80
73133;DHT22;61320;52.008;4.530;2023-04-24T13:07:39;11.88;70.70
73133;DHT22;61320;52.008;4.530;2023-04-24T13:10:05;11.97;73.09
73133;DHT22;61320;52.008;4.530;2023-04-24T13:12:31;12.17;70.40
73133;DHT22;61320;52.008;4.530;2023-04-24T13:14:58;12.26;72.28
73133;DHT22;61320;52.008;4.530;2023-04-24T13:17:24;12.31;69.65
73133;DHT22;61320;52.008;4.530;2023-04-24T13:19:50;12.38;69.83
73133;DHT22;61320;52.008;4.530;2023-04-24T13:22:20;12.35;67.78
73133;DHT22;61320;52.008;4.530;2023-04-24T13:24:46;12.45;71.28
73133;DHT22;61320;52.008;4.530;2023-04-24T13:27:17;12.49;68.36
73133;DHT22;61320;52.008;4.530;2023-04-24T13:29:43;12.63;70.98
73133;DHT22;61320;52.008;4.530;2023-04-24T13:32:09;12.70;69.72
73133;DHT22;61320;52.008;4.530;2023-04-24T13:34:35;12.75;66.75
73133;DHT22;61320;52.008;4.530;2023-04-24T13:37:02;12.72;66.17
73133;DHT22;61320;52.008;4.530;2023-04-24T13:39:32;12.64;66.10
73133;DHT22;61320;52.008;4.530;2023-04-24T13:41:58;12.64;67.01
73133;DHT22;61320;52.008;4.530;2023-04-24T13:44:24;12.53;66.73
73133;DHT22;61320;52.008;4.530;2023-04-24T13:46:52;12.60;67.58
73133;DHT22;61320;52.008;4.530;2023-04-24T13:49:21;12.67;67.70
73133;DHT22;61320;52.008;4.530;2023-04-24T13:51:47;12.76;65.53
73133;DHT22;61320;52.008;4.530;2023-04-24T13:54:12;12.87;67.45
73133;DHT22;61320;52.008;4.530;2023-04-24T13:56:39;13.07;68.85
73133;DHT22;61320;52.008;4.530;2023-04-24T13:59:05;13.06;64.54
73133;DHT22;61320;52.008;4.530;2023-04-24T14:01:31;13.20;64.78
73133;DHT22;61320;52.008;4.530;2023-04-24T14:03:58;13.22;62.93
73133;DHT22;61320;52.008;4.530;2023-04-24T14:06:23;13.22;64.89
73133;DHT22;61320;52.008;4.530;2023-04-24T14:08:49;13.14;65.53
73133;DHT22;61320;52.008;4.530;2023-04-24T14:11:16;13.00;64.96
73133;DHT22;61320;52.008;4.530;2023-04-24T14:13:42;12.77;66.31
73133;DHT22;61320;52.008;4.530;2023-04-24T14:16:08;12.49;68.59
73133;DHT22;61320;52.008;4.530;2023-04-24T14:18:33;12.08;69.72
73133;DHT22;61320;52.008;4.530;2023-04-24T14:20:59;11.91;70.34
73133;DHT22;61320;52.008;4.530;2023-04-24T14:23:27;11.73;69.58
73133;DHT22;61320;52.008;4.530;2023-04-24T14:25:52;11.63;70.08
73133;DHT22;61320;52.008;4.530;2023-04-24T14:28:19;11.62;70.73
73133;DHT22;61320;52.008;4.530;2023-04-24T14:30:46;11.67;68.48
73133;DHT22;61320;52.008;4.530;2023-04-24T14:33:12;11.71;69.87
73133;DHT22;61320;52.008;4.530;2023-04-24T14:35:40;11.84;69.73
73133;DHT22;61320;52.008;4.530;2023-04-24T14:38:07;11.87;68.37
73133;DHT22;61320;52.008;4.530;2023-04-24T14:40:33;11.95;68.18
73133;DHT22;61320;52.008;4.530;2023-04-24T14:42:59;12.04;67.13
73133;DHT22;61320;52.008;4.530;2023-04-24T14:45:25;12.12;66.25
73133;DHT22;61320;52.008;4.530;2023-04-24T14:47:51;12.17;66.82
73133;DHT22;61320;52.008;4.530;2023-04-24T14:50:17;12.10;66.40
73133;DHT22;61320;52.008;4.530;2023-04-24T14:52:43;12.04;66.21
73133;DHT22;61320;52.008;4.530;2023-04-24T14:55:08;12.12;66.10
73133;DHT22;61320;52.008;4.530;2023-04-24T14:57:34;12.12;67.02
73133;DHT22;61320;52.008;4.530;2023-04-24T15:00:03;12.18;66.85
73133;DHT22;61320;52.008;4.530;2023-04-24T15:02:32;12.15;67.30
73133;DHT22;61320;52.008;4.530;2023-04-24T15:04:58;12.14;64.98
73133;DHT22;61320;52.008;4.530;2023-04-24T15:07:24;12.15;64.99
73133;DHT22;61320;52.008;4.530;2023-04-24T15:09:49;12.15;63.43
73133;DHT22;61320;52.008;4.530;2023-04-24T15:12:15;12.05;64.09
73133;DHT22;61320;52.008;4.530;2023-04-24T15:14:40;12.04;65.79
73133;DHT22;61320;52.008;4.530;2023-04-24T15:17:06;12.06;66.67
73133;DHT22;61320;52.008;4.530;2023-04-24T15:19:31;12.04;68.43
73133;DHT22;61320;52.008;4.530;2023-04-24T15:21:57;12.05;67.51
73133;DHT22;61320;52.008;4.530;2023-04-24T15:24:22;11.93;68.85
73133;DHT22;61320;52.008;4.530;2023-04-24T15:26:47;11.85;70.60
73133;DHT22;61320;52.008;4.530;2023-04-24T15:29:13;11.80;72.72
73133;DHT22;61320;52.008;4.530;2023-04-24T15:31:38;11.75;71.68
73133;DHT22;61320;52.008;4.530;2023-04-24T15:34:05;11.75;71.71